UWKD

Details ICAO UWKD (KZN)
Name Kazan Intl
Region Russia
Timezone Europe/Moscow (UTC+3.0)
Plans Departing 206
Arriving 225
Stats Elevation 411 ft / 125 m (AMSL)
Location 55.607500° 49.275500°
Runways 1
Magnetic Variation 13.395° E
Sunrise 2018-12-19 05:09:53 UTC / 2018-12-19 08:09:53 Local
Sunset 2018-12-19 12:12:25 UTC / 2018-12-19 15:12:25 Local
Advertisement - Login to hide

Runways

ID Width Length Bearing (true/mag) Surface Threshold Overrun Markings Lighting
11 148 ft / 45 m 12,315 ft / 3,754 m 124.46° / 111.06° CONCRETE 0 ft / 0 m 0 ft / 0 m PREC-APP CENTERLINE EDGE THRESHOLD ALSF-II REIL-OMNI
29 148 ft / 45 m 12,315 ft / 3,754 m 304.50° / 291.10° CONCRETE 0 ft / 0 m 0 ft / 0 m PREC-APP CENTERLINE EDGE THRESHOLD ALSF-II REIL-OMNI

Map

Weather


0- 5 10 15 20 25 30 35+ Temperature / °C

Clouds and Precipitation
Forecast for 2018-12-19 12:00 UTC. Updated 5 hours ago

Ground ~20,000 ft ~40,000 ft Winds

METAR

UWKD 191500Z 05002MPS 9999 OVC006 M12/M14 Q1041 R11/390040 NOSIG RMK QFE770/1027

TAF

TAF UWKD 191350Z 1915/2015 30003MPS 0500 -SN FZFG OVC002 TXM11/2011Z TNM18/2004Z TEMPO 1915/1921 VRB01MPS 3100 BR OVC004 TEMPO 1921/2006 VRB01MPS 2100 BR OVC003 FM200600 16002MPS 3100 -SN BR OVC004

Frequencies

Ground 121.70 MHz Kazan Ground
Approach 134.80 MHz Kazan Approach
Tower 120.30 MHz Kazan Tower
Recorded 126.80 MHz Kazan ATIS
Unicom 119.40 MHz Kazan Radar
Warning: Do not use this data for real-world aviation or navigation. No guarantee of current accuracy is given.